sensor_id;sensor_type;location;lat;lon;timestamp;pressure;altitude;pressure_sealevel;temperature;humidity
48824;BME280;34640;53.590;10.054;2022-08-07T00:00:40;102233.50;;;14.45;98.07
48824;BME280;34640;53.590;10.054;2022-08-07T00:03:13;102246.16;;;14.38;98.43
48824;BME280;34640;53.590;10.054;2022-08-07T00:05:46;102239.59;;;14.32;98.85
48824;BME280;34640;53.590;10.054;2022-08-07T00:08:21;102234.13;;;14.29;99.37
48824;BME280;34640;53.590;10.054;2022-08-07T00:10:54;102237.44;;;14.26;99.73
48824;BME280;34640;53.590;10.054;2022-08-07T00:13:30;102234.63;;;14.23;100.00
48824;BME280;34640;53.590;10.054;2022-08-07T00:16:04;102229.19;;;14.20;100.00
48824;BME280;34640;53.590;10.054;2022-08-07T00:18:38;102224.53;;;14.16;100.00
48824;BME280;34640;53.590;10.054;2022-08-07T00:21:12;102227.06;;;14.15;100.00
48824;BME280;34640;53.590;10.054;2022-08-07T00:24:05;102221.72;;;14.13;100.00
48824;BME280;34640;53.590;10.054;2022-08-07T00:26:38;102218.09;;;14.11;100.00
48824;BME280;34640;53.590;10.054;2022-08-07T00:29:32;102228.41;;;14.10;100.00
48824;BME280;34640;53.590;10.054;2022-08-07T00:32:08;102220.47;;;14.08;100.00
48824;BME280;34640;53.590;10.054;2022-08-07T00:34:44;102222.06;;;14.06;100.00
48824;BME280;34640;53.590;10.054;2022-08-07T00:37:21;102211.47;;;14.04;100.00
48824;BME280;34640;53.590;10.054;2022-08-07T00:40:00;102207.16;;;14.05;100.00
48824;BME280;34640;53.590;10.054;2022-08-07T00:42:33;102214.00;;;14.03;100.00
48824;BME280;34640;53.590;10.054;2022-08-07T00:45:09;102218.13;;;13.99;100.00
48824;BME280;34640;53.590;10.054;2022-08-07T00:47:47;102213.47;;;13.95;100.00
48824;BME280;34640;53.590;10.054;2022-08-07T00:50:40;102214.88;;;13.90;100.00
48824;BME280;34640;53.590;10.054;2022-08-07T00:53:22;102218.75;;;13.84;100.00
48824;BME280;34640;53.590;10.054;2022-08-07T00:55:55;102216.16;;;13.84;100.00
48824;BME280;34640;53.590;10.054;2022-08-07T00:58:34;102212.72;;;13.85;100.00
48824;BME280;34640;53.590;10.054;2022-08-07T01:01:09;102213.97;;;13.90;100.00
48824;BME280;34640;53.590;10.054;2022-08-07T01:03:44;102213.97;;;13.90;100.00
48824;BME280;34640;53.590;10.054;2022-08-07T01:06:30;102217.53;;;13.79;100.00
48824;BME280;34640;53.590;10.054;2022-08-07T01:09:04;102214.50;;;13.72;100.00
48824;BME280;34640;53.590;10.054;2022-08-07T01:11:39;102208.69;;;13.65;100.00
48824;BME280;34640;53.590;10.054;2022-08-07T01:14:32;102218.06;;;13.61;100.00
48824;BME280;34640;53.590;10.054;2022-08-07T01:17:09;102218.84;;;13.60;100.00
48824;BME280;34640;53.590;10.054;2022-08-07T01:19:42;102213.63;;;13.60;100.00
48824;BME280;34640;53.590;10.054;2022-08-07T01:22:26;102212.00;;;13.62;100.00
48824;BME280;34640;53.590;10.054;2022-08-07T01:25:01;102204.16;;;13.62;100.00
48824;BME280;34640;53.590;10.054;2022-08-07T01:27:54;102207.38;;;13.58;100.00
48824;BME280;34640;53.590;10.054;2022-08-07T01:30:30;102205.34;;;13.54;100.00
48824;BME280;34640;53.590;10.054;2022-08-07T01:33:04;102202.41;;;13.50;100.00
48824;BME280;34640;53.590;10.054;2022-08-07T01:35:37;102198.78;;;13.48;100.00
48824;BME280;34640;53.590;10.054;2022-08-07T01:38:27;102201.16;;;13.44;100.00
48824;BME280;34640;53.590;10.054;2022-08-07T01:41:02;102195.81;;;13.43;100.00
48824;BME280;34640;53.590;10.054;2022-08-07T01:43:37;102201.84;;;13.42;100.00
48824;BME280;34640;53.590;10.054;2022-08-07T01:46:13;102202.66;;;13.41;100.00
48824;BME280;34640;53.590;10.054;2022-08-07T01:48:52;102195.06;;;13.32;100.00
48824;BME280;34640;53.590;10.054;2022-08-07T01:51:25;102199.28;;;13.30;100.00
48824;BME280;34640;53.590;10.054;2022-08-07T01:54:20;102203.59;;;13.30;100.00
48824;BME280;34640;53.590;10.054;2022-08-07T01:57:11;102197.56;;;13.31;100.00
48824;BME280;34640;53.590;10.054;2022-08-07T02:00:00;102193.13;;;13.30;100.00
48824;BME280;34640;53.590;10.054;2022-08-07T02:02:46;102193.38;;;13.21;100.00
48824;BME280;34640;53.590;10.054;2022-08-07T02:05:46;102196.66;;;13.19;100.00
48824;BME280;34640;53.590;10.054;2022-08-07T02:08:33;102195.75;;;13.18;100.00
48824;BME280;34640;53.590;10.054;2022-08-07T02:11:11;102192.78;;;13.13;100.00
48824;BME280;34640;53.590;10.054;2022-08-07T02:14:05;102195.19;;;13.10;100.00
48824;BME280;34640;53.590;10.054;2022-08-07T02:16:41;102192.34;;;13.07;100.00
48824;BME280;34640;53.590;10.054;2022-08-07T02:19:15;102190.22;;;13.02;100.00
48824;BME280;34640;53.590;10.054;2022-08-07T02:22:12;102193.72;;;13.02;100.00
48824;BME280;34640;53.590;10.054;2022-08-07T02:24:51;102192.94;;;13.03;100.00
48824;BME280;34640;53.590;10.054;2022-08-07T02:27:27;102186.78;;;13.03;100.00
48824;BME280;34640;53.590;10.054;2022-08-07T02:30:06;102180.75;;;13.04;100.00
48824;BME280;34640;53.590;10.054;2022-08-07T02:32:40;102181.56;;;13.03;100.00
48824;BME280;34640;53.590;10.054;2022-08-07T02:35:35;102185.09;;;13.03;100.00
48824;BME280;34640;53.590;10.054;2022-08-07T02:38:32;102177.78;;;12.99;100.00
48824;BME280;34640;53.590;10.054;2022-08-07T02:41:08;102180.28;;;12.98;100.00
48824;BME280;34640;53.590;10.054;2022-08-07T02:43:43;102181.56;;;12.91;100.00
48824;BME280;34640;53.590;10.054;2022-08-07T02:46:22;102173.38;;;12.87;100.00
48824;BME280;34640;53.590;10.054;2022-08-07T02:48:56;102177.72;;;12.86;100.00
48824;BME280;34640;53.590;10.054;2022-08-07T02:51:35;102184.44;;;12.82;100.00
48824;BME280;34640;53.590;10.054;2022-08-07T02:54:22;102183.53;;;12.82;100.00
48824;BME280;34640;53.590;10.054;2022-08-07T02:56:59;102180.66;;;12.79;100.00
48824;BME280;34640;53.590;10.054;2022-08-07T02:59:40;102177.13;;;12.78;100.00
48824;BME280;34640;53.590;10.054;2022-08-07T03:02:26;102175.44;;;12.79;100.00
48824;BME280;34640;53.590;10.054;2022-08-07T03:04:59;102176.00;;;12.75;100.00
48824;BME280;34640;53.590;10.054;2022-08-07T03:07:38;102172.25;;;12.71;100.00
48824;BME280;34640;53.590;10.054;2022-08-07T03:10:32;102175.78;;;12.72;100.00
48824;BME280;34640;53.590;10.054;2022-08-07T03:13:13;102174.75;;;12.70;100.00
48824;BME280;34640;53.590;10.054;2022-08-07T03:15:52;102176.69;;;12.72;100.00
48824;BME280;34640;53.590;10.054;2022-08-07T03:18:29;102172.16;;;12.70;100.00
48824;BME280;34640;53.590;10.054;2022-08-07T03:21:06;102169.31;;;12.67;100.00
48824;BME280;34640;53.590;10.054;2022-08-07T03:23:43;102174.44;;;12.65;100.00
48824;BME280;34640;53.590;10.054;2022-08-07T03:26:38;102163.19;;;12.66;100.00
48824;BME280;34640;53.590;10.054;2022-08-07T03:29:22;102164.78;;;12.64;100.00
48824;BME280;34640;53.590;10.054;2022-08-07T03:32:05;102164.09;;;12.67;100.00
48824;BME280;34640;53.590;10.054;2022-08-07T03:34:45;102168.19;;;12.63;100.00
48824;BME280;34640;53.590;10.054;2022-08-07T03:37:40;102162.75;;;12.60;100.00
48824;BME280;34640;53.590;10.054;2022-08-07T03:40:24;102162.47;;;12.57;100.00
48824;BME280;34640;53.590;10.054;2022-08-07T03:43:07;102163.16;;;12.54;100.00
48824;BME280;34640;53.590;10.054;2022-08-07T03:45:45;102164.88;;;12.54;100.00
48824;BME280;34640;53.590;10.054;2022-08-07T03:48:20;102166.47;;;12.52;100.00
48824;BME280;34640;53.590;10.054;2022-08-07T03:50:56;102168.38;;;12.54;100.00
48824;BME280;34640;53.590;10.054;2022-08-07T03:53:30;102161.25;;;12.52;100.00
48824;BME280;34640;53.590;10.054;2022-08-07T03:56:24;102170.09;;;12.54;100.00
48824;BME280;34640;53.590;10.054;2022-08-07T03:59:05;102171.25;;;12.46;100.00
48824;BME280;34640;53.590;10.054;2022-08-07T04:01:44;102170.22;;;12.44;100.00
48824;BME280;34640;53.590;10.054;2022-08-07T04:04:19;102170.34;;;12.45;100.00
48824;BME280;34640;53.590;10.054;2022-08-07T04:06:54;102178.50;;;12.50;100.00
48824;BME280;34640;53.590;10.054;2022-08-07T04:09:31;102177.94;;;12.54;100.00
48824;BME280;34640;53.590;10.054;2022-08-07T04:12:20;102183.84;;;12.51;100.00
48824;BME280;34640;53.590;10.054;2022-08-07T04:15:00;102187.25;;;12.50;100.00
48824;BME280;34640;53.590;10.054;2022-08-07T04:17:35;102185.66;;;12.52;100.00
48824;BME280;34640;53.590;10.054;2022-08-07T04:20:30;102187.84;;;12.58;100.00
48824;BME280;34640;53.590;10.054;2022-08-07T04:23:06;102188.28;;;12.64;100.00
48824;BME280;34640;53.590;10.054;2022-08-07T04:25:50;102191.94;;;12.66;100.00
48824;BME280;34640;53.590;10.054;2022-08-07T04:28:27;102198.50;;;12.73;100.00
48824;BME280;34640;53.590;10.054;2022-08-07T04:31:02;102191.56;;;12.73;100.00
48824;BME280;34640;53.590;10.054;2022-08-07T04:33:38;102196.47;;;12.69;100.00
48824;BME280;34640;53.590;10.054;2022-08-07T04:36:14;102191.69;;;12.75;100.00
48824;BME280;34640;53.590;10.054;2022-08-07T04:38:53;102202.03;;;12.73;100.00
48824;BME280;34640;53.590;10.054;2022-08-07T04:41:28;102201.81;;;12.82;100.00
48824;BME280;34640;53.590;10.054;2022-08-07T04:44:07;102207.50;;;12.88;100.00
48824;BME280;34640;53.590;10.054;2022-08-07T04:46:54;102199.06;;;12.92;100.00
48824;BME280;34640;53.590;10.054;2022-08-07T04:49:43;102210.66;;;12.96;100.00
48824;BME280;34640;53.590;10.054;2022-08-07T04:52:38;102202.25;;;13.00;100.00
48824;BME280;34640;53.590;10.054;2022-08-07T04:55:27;102207.34;;;12.98;100.00
48824;BME280;34640;53.590;10.054;2022-08-07T04:58:27;102212.25;;;12.94;100.00
48824;BME280;34640;53.590;10.054;2022-08-07T05:01:31;102210.09;;;13.00;100.00
48824;BME280;34640;53.590;10.054;2022-08-07T05:04:13;102207.72;;;13.03;100.00
48824;BME280;34640;53.590;10.054;2022-08-07T05:06:54;102215.09;;;13.08;100.00
48824;BME280;34640;53.590;10.054;2022-08-07T05:09:36;102205.97;;;13.15;100.00
48824;BME280;34640;53.590;10.054;2022-08-07T05:12:21;102218.28;;;13.28;100.00
48824;BME280;34640;53.590;10.054;2022-08-07T05:15:03;102207.66;;;13.38;100.00
48824;BME280;34640;53.590;10.054;2022-08-07T05:17:57;102225.06;;;13.49;100.00
48824;BME280;34640;53.590;10.054;2022-08-07T05:20:35;102221.78;;;13.65;100.00
48824;BME280;34640;53.590;10.054;2022-08-07T05:23:18;102226.09;;;13.76;100.00
48824;BME280;34640;53.590;10.054;2022-08-07T05:26:03;102226.16;;;13.89;100.00
48824;BME280;34640;53.590;10.054;2022-08-07T05:28:49;102226.91;;;14.00;100.00
48824;BME280;34640;53.590;10.054;2022-08-07T05:31:26;102221.50;;;14.10;100.00
48824;BME280;34640;53.590;10.054;2022-08-07T05:34:09;102225.66;;;14.20;100.00
48824;BME280;34640;53.590;10.054;2022-08-07T05:36:45;102227.28;;;14.31;100.00
48824;BME280;34640;53.590;10.054;2022-08-07T05:39:21;102234.16;;;14.42;100.00
48824;BME280;34640;53.590;10.054;2022-08-07T05:42:16;102232.66;;;14.97;100.00
48824;BME280;34640;53.590;10.054;2022-08-07T05:45:08;102227.75;;;15.43;100.00
48824;BME280;34640;53.590;10.054;2022-08-07T05:48:03;102232.09;;;15.83;100.00
48824;BME280;34640;53.590;10.054;2022-08-07T05:50:38;102236.22;;;16.08;100.00
48824;BME280;34640;53.590;10.054;2022-08-07T05:53:14;102232.78;;;16.09;100.00
48824;BME280;34640;53.590;10.054;2022-08-07T05:56:08;102224.34;;;16.14;100.00
48824;BME280;34640;53.590;10.054;2022-08-07T05:58:45;102228.97;;;16.18;100.00
48824;BME280;34640;53.590;10.054;2022-08-07T06:01:25;102218.84;;;16.39;99.00
48824;BME280;34640;53.590;10.054;2022-08-07T06:04:07;102224.31;;;16.72;97.98
48824;BME280;34640;53.590;10.054;2022-08-07T06:06:41;102230.84;;;16.78;94.77
48824;BME280;34640;53.590;10.054;2022-08-07T06:09:18;102223.22;;;16.68;95.01
48824;BME280;34640;53.590;10.054;2022-08-07T06:12:12;102217.03;;;16.53;93.64
48824;BME280;34640;53.590;10.054;2022-08-07T06:14:47;102224.53;;;16.47;93.78
48824;BME280;34640;53.590;10.054;2022-08-07T06:17:22;102219.84;;;16.41;94.07
48824;BME280;34640;53.590;10.054;2022-08-07T06:20:03;102219.28;;;16.47;94.18
48824;BME280;34640;53.590;10.054;2022-08-07T06:22:43;102211.88;;;16.55;93.69
48824;BME280;34640;53.590;10.054;2022-08-07T06:25:40;102215.66;;;16.60;93.56
48824;BME280;34640;53.590;10.054;2022-08-07T06:28:27;102219.94;;;16.58;92.53
48824;BME280;34640;53.590;10.054;2022-08-07T06:31:01;102217.56;;;16.62;91.01
48824;BME280;34640;53.590;10.054;2022-08-07T06:33:36;102220.13;;;16.75;90.53
48824;BME280;34640;53.590;10.054;2022-08-07T06:36:09;102220.31;;;16.78;89.80
48824;BME280;34640;53.590;10.054;2022-08-07T06:38:44;102218.03;;;16.85;89.77
48824;BME280;34640;53.590;10.054;2022-08-07T06:41:40;102215.56;;;16.88;89.33
48824;BME280;34640;53.590;10.054;2022-08-07T06:44:34;102216.38;;;17.01;88.24
48824;BME280;34640;53.590;10.054;2022-08-07T06:47:12;102219.75;;;16.99;87.29
48824;BME280;34640;53.590;10.054;2022-08-07T06:49:46;102227.16;;;17.06;86.88
48824;BME280;34640;53.590;10.054;2022-08-07T06:52:24;102225.34;;;17.05;87.26
48824;BME280;34640;53.590;10.054;2022-08-07T06:55:10;102224.31;;;17.18;87.36
48824;BME280;34640;53.590;10.054;2022-08-07T06:58:05;102220.22;;;17.23;86.98
48824;BME280;34640;53.590;10.054;2022-08-07T07:00:41;102227.72;;;17.31;85.88
48824;BME280;34640;53.590;10.054;2022-08-07T07:03:18;102225.06;;;17.31;84.40
48824;BME280;34640;53.590;10.054;2022-08-07T07:06:12;102218.53;;;17.39;81.72
48824;BME280;34640;53.590;10.054;2022-08-07T07:08:54;102224.22;;;17.47;79.10
48824;BME280;34640;53.590;10.054;2022-08-07T07:11:29;102220.25;;;17.55;77.31
48824;BME280;34640;53.590;10.054;2022-08-07T07:14:23;102230.41;;;17.64;77.18
48824;BME280;34640;53.590;10.054;2022-08-07T07:19:55;102228.22;;;17.71;74.03
48824;BME280;34640;53.590;10.054;2022-08-07T07:22:30;102237.69;;;17.84;73.09
48824;BME280;34640;53.590;10.054;2022-08-07T07:25:25;102225.19;;;17.80;73.84
48824;BME280;34640;53.590;10.054;2022-08-07T07:28:21;102230.03;;;17.89;73.77
48824;BME280;34640;53.590;10.054;2022-08-07T07:31:19;102230.69;;;18.01;72.16
48824;BME280;34640;53.590;10.054;2022-08-07T07:34:05;102228.69;;;18.13;72.11
48824;BME280;34640;53.590;10.054;2022-08-07T07:36:41;102236.44;;;18.26;70.51
48824;BME280;34640;53.590;10.054;2022-08-07T07:39:20;102227.78;;;18.29;70.32
48824;BME280;34640;53.590;10.054;2022-08-07T07:41:56;102221.50;;;18.27;70.51
48824;BME280;34640;53.590;10.054;2022-08-07T07:44:48;102228.69;;;18.29;71.13
48824;BME280;34640;53.590;10.054;2022-08-07T07:47:24;102221.66;;;18.30;71.09
48824;BME280;34640;53.590;10.054;2022-08-07T07:49:59;102223.84;;;18.39;70.92
48824;BME280;34640;53.590;10.054;2022-08-07T07:52:55;102219.88;;;18.29;70.72
48824;BME280;34640;53.590;10.054;2022-08-07T07:55:31;102220.06;;;18.50;70.87
48824;BME280;34640;53.590;10.054;2022-08-07T07:58:08;102227.44;;;18.73;71.18
48824;BME280;34640;53.590;10.054;2022-08-07T08:00:43;102225.50;;;18.87;69.91
48824;BME280;34640;53.590;10.054;2022-08-07T08:03:25;102224.56;;;18.86;70.77
48824;BME280;34640;53.590;10.054;2022-08-07T08:06:22;102218.56;;;18.89;70.04
48824;BME280;34640;53.590;10.054;2022-08-07T08:08:59;102214.47;;;18.96;69.39
48824;BME280;34640;53.590;10.054;2022-08-07T08:11:34;102213.69;;;19.16;68.50
48824;BME280;34640;53.590;10.054;2022-08-07T08:14:28;102212.97;;;19.38;66.15
48824;BME280;34640;53.590;10.054;2022-08-07T08:17:02;102208.94;;;19.46;63.14
48824;BME280;34640;53.590;10.054;2022-08-07T08:20:00;102209.09;;;19.49;64.00
48824;BME280;34640;53.590;10.054;2022-08-07T08:22:53;102203.44;;;19.59;61.67
48824;BME280;34640;53.590;10.054;2022-08-07T08:25:48;102201.66;;;19.77;59.61
48824;BME280;34640;53.590;10.054;2022-08-07T08:28:50;102200.75;;;20.57;56.57
48824;BME280;34640;53.590;10.054;2022-08-07T08:31:25;102214.09;;;22.66;49.38
48824;BME280;34640;53.590;10.054;2022-08-07T08:34:21;102225.16;;;25.26;41.48
48824;BME280;34640;53.590;10.054;2022-08-07T08:36:58;102229.97;;;26.73;37.30
48824;BME280;34640;53.590;10.054;2022-08-07T08:39:42;102228.09;;;27.86;34.33
48824;BME280;34640;53.590;10.054;2022-08-07T08:42:35;102228.97;;;28.65;33.08
48824;BME280;34640;53.590;10.054;2022-08-07T08:45:15;102237.47;;;28.24;32.72
48824;BME280;34640;53.590;10.054;2022-08-07T08:47:55;102225.28;;;26.60;35.27
48824;BME280;34640;53.590;10.054;2022-08-07T08:50:31;102206.56;;;24.57;38.25
48824;BME280;34640;53.590;10.054;2022-08-07T08:53:15;102213.09;;;23.16;40.51
48824;BME280;34640;53.590;10.054;2022-08-07T08:55:55;102200.28;;;22.25;43.09
48824;BME280;34640;53.590;10.054;2022-08-07T08:58:34;102195.84;;;21.77;45.65
48824;BME280;34640;53.590;10.054;2022-08-07T09:01:14;102200.53;;;21.84;46.28
48824;BME280;34640;53.590;10.054;2022-08-07T09:03:55;102200.56;;;21.85;45.67
48824;BME280;34640;53.590;10.054;2022-08-07T09:06:39;102189.78;;;21.57;46.96
48824;BME280;34640;53.590;10.054;2022-08-07T09:09:34;102189.94;;;21.38;45.86
48824;BME280;34640;53.590;10.054;2022-08-07T09:12:16;102185.13;;;21.27;46.57
48824;BME280;34640;53.590;10.054;2022-08-07T09:15:14;102191.50;;;21.32;47.41
48824;BME280;34640;53.590;10.054;2022-08-07T09:18:16;102187.34;;;21.39;46.65
48824;BME280;34640;53.590;10.054;2022-08-07T09:21:22;102189.97;;;21.61;46.67
48824;BME280;34640;53.590;10.054;2022-08-07T09:24:37;102187.81;;;21.51;46.01
48824;BME280;34640;53.590;10.054;2022-08-07T09:27:36;102179.50;;;21.42;46.21
48824;BME280;34640;53.590;10.054;2022-08-07T09:30:44;102182.41;;;21.48;46.18
48824;BME280;34640;53.590;10.054;2022-08-07T09:33:40;102184.69;;;21.39;47.25
48824;BME280;34640;53.590;10.054;2022-08-07T09:36:32;102174.25;;;21.44;47.20
48824;BME280;34640;53.590;10.054;2022-08-07T09:39:30;102187.78;;;21.50;46.71
48824;BME280;34640;53.590;10.054;2022-08-07T09:42:37;102180.41;;;21.66;47.17
48824;BME280;34640;53.590;10.054;2022-08-07T09:45:17;102171.06;;;21.76;46.48
48824;BME280;34640;53.590;10.054;2022-08-07T09:48:21;102167.84;;;21.61;47.15
48824;BME280;34640;53.590;10.054;2022-08-07T09:51:32;102172.41;;;21.65;47.09
48824;BME280;34640;53.590;10.054;2022-08-07T09:54:34;102174.69;;;21.78;47.46
48824;BME280;34640;53.590;10.054;2022-08-07T10:00:20;102156.75;;;21.71;47.47
48824;BME280;34640;53.590;10.054;2022-08-07T10:03:19;102165.94;;;21.81;47.75
48824;BME280;34640;53.590;10.054;2022-08-07T10:06:43;102153.56;;;21.81;47.45
48824;BME280;34640;53.590;10.054;2022-08-07T10:09:52;102154.41;;;21.80;47.93
48824;BME280;34640;53.590;10.054;2022-08-07T10:12:46;102154.81;;;21.91;47.42
48824;BME280;34640;53.590;10.054;2022-08-07T10:18:47;102140.31;;;21.81;47.22
48824;BME280;34640;53.590;10.054;2022-08-07T10:21:31;102150.91;;;21.57;47.20
48824;BME280;34640;53.590;10.054;2022-08-07T10:24:53;102148.91;;;21.50;47.24
48824;BME280;34640;53.590;10.054;2022-08-07T10:27:47;102138.50;;;21.32;47.15
48824;BME280;34640;53.590;10.054;2022-08-07T10:30:32;102135.19;;;21.62;48.01
48824;BME280;34640;53.590;10.054;2022-08-07T10:33:41;102126.44;;;21.90;47.23
48824;BME280;34640;53.590;10.054;2022-08-07T10:36:58;102135.28;;;22.13;47.11
48824;BME280;34640;53.590;10.054;2022-08-07T10:39:42;102131.38;;;22.29;46.52
48824;BME280;34640;53.590;10.054;2022-08-07T10:42:39;102132.75;;;22.43;46.29
48824;BME280;34640;53.590;10.054;2022-08-07T10:45:17;102124.81;;;22.17;46.54
48824;BME280;34640;53.590;10.054;2022-08-07T10:48:30;102125.09;;;21.76;46.97
48824;BME280;34640;53.590;10.054;2022-08-07T10:51:09;102122.03;;;21.90;46.15
48824;BME280;34640;53.590;10.054;2022-08-07T10:54:10;102110.66;;;21.93;45.50
48824;BME280;34640;53.590;10.054;2022-08-07T10:56:56;102114.78;;;21.85;46.60
48824;BME280;34640;53.590;10.054;2022-08-07T10:59:49;102108.97;;;21.95;45.34
48824;BME280;34640;53.590;10.054;2022-08-07T11:02:30;102107.09;;;22.16;44.98
48824;BME280;34640;53.590;10.054;2022-08-07T11:05:16;102109.63;;;22.39;44.36
48824;BME280;34640;53.590;10.054;2022-08-07T11:08:06;102098.94;;;22.37;44.65
48824;BME280;34640;53.590;10.054;2022-08-07T11:10:46;102093.88;;;22.45;44.59
48824;BME280;34640;53.590;10.054;2022-08-07T11:13:33;102093.63;;;22.64;44.62
48824;BME280;34640;53.590;10.054;2022-08-07T11:16:32;102096.91;;;22.82;44.98
48824;BME280;34640;53.590;10.054;2022-08-07T11:19:15;102099.69;;;22.87;44.30
48824;BME280;34640;53.590;10.054;2022-08-07T11:22:06;102091.47;;;23.08;44.16
48824;BME280;34640;53.590;10.054;2022-08-07T11:25:08;102092.53;;;23.14;41.22
48824;BME280;34640;53.590;10.054;2022-08-07T11:27:49;102095.16;;;23.13;43.03
48824;BME280;34640;53.590;10.054;2022-08-07T11:30:41;102085.03;;;23.00;43.38
48824;BME280;34640;53.590;10.054;2022-08-07T11:33:23;102098.47;;;22.77;44.68
48824;BME280;34640;53.590;10.054;2022-08-07T11:36:30;102097.38;;;22.44;44.80
48824;BME280;34640;53.590;10.054;2022-08-07T11:39:16;102087.91;;;22.52;43.93
48824;BME280;34640;53.590;10.054;2022-08-07T11:41:59;102090.00;;;22.89;43.91
48824;BME280;34640;53.590;10.054;2022-08-07T11:44:44;102083.16;;;22.97;43.83
48824;BME280;34640;53.590;10.054;2022-08-07T11:47:37;102084.00;;;22.68;43.88
48824;BME280;34640;53.590;10.054;2022-08-07T11:50:36;102084.09;;;22.17;44.53
48824;BME280;34640;53.590;10.054;2022-08-07T11:53:36;102080.53;;;21.91;45.41
48824;BME280;34640;53.590;10.054;2022-08-07T11:56:46;102076.50;;;21.77;45.52
48824;BME280;34640;53.590;10.054;2022-08-07T11:59:40;102068.59;;;21.78;46.03
48824;BME280;34640;53.590;10.054;2022-08-07T12:06:17;102072.09;;;21.77;45.71
48824;BME280;34640;53.590;10.054;2022-08-07T12:09:12;102067.63;;;21.76;46.05
48824;BME280;34640;53.590;10.054;2022-08-07T12:12:00;102058.63;;;21.71;46.02
48824;BME280;34640;53.590;10.054;2022-08-07T12:14:46;102055.25;;;22.02;46.12
48824;BME280;34640;53.590;10.054;2022-08-07T12:17:37;102044.00;;;22.35;44.93
48824;BME280;34640;53.590;10.054;2022-08-07T12:20:34;102038.56;;;22.59;44.59
48824;BME280;34640;53.590;10.054;2022-08-07T12:23:30;102042.53;;;22.44;44.26
48824;BME280;34640;53.590;10.054;2022-08-07T12:26:28;102040.13;;;22.25;44.18
48824;BME280;34640;53.590;10.054;2022-08-07T12:29:20;102033.53;;;22.12;44.31
48824;BME280;34640;53.590;10.054;2022-08-07T12:32:16;102037.28;;;22.19;44.14
48824;BME280;34640;53.590;10.054;2022-08-07T12:34:52;102035.31;;;22.40;45.17
48824;BME280;34640;53.590;10.054;2022-08-07T12:37:27;102031.97;;;22.46;44.22
48824;BME280;34640;53.590;10.054;2022-08-07T12:40:23;102037.13;;;22.41;43.66
48824;BME280;34640;53.590;10.054;2022-08-07T12:43:21;102031.50;;;22.32;42.32
48824;BME280;34640;53.590;10.054;2022-08-07T12:46:23;102031.28;;;22.53;42.18
48824;BME280;34640;53.590;10.054;2022-08-07T12:49:14;102030.91;;;22.69;42.97
48824;BME280;34640;53.590;10.054;2022-08-07T12:52:12;102032.13;;;22.79;42.43
48824;BME280;34640;53.590;10.054;2022-08-07T12:54:53;102026.09;;;22.56;43.09
48824;BME280;34640;53.590;10.054;2022-08-07T12:57:37;102019.00;;;22.28;44.84
48824;BME280;34640;53.590;10.054;2022-08-07T13:00:39;102027.91;;;22.57;44.50
48824;BME280;34640;53.590;10.054;2022-08-07T13:03:35;102028.81;;;22.58;43.75
48824;BME280;34640;53.590;10.054;2022-08-07T13:06:55;102026.81;;;22.52;44.69
48824;BME280;34640;53.590;10.054;2022-08-07T13:10:03;102029.69;;;22.58;45.05
48824;BME280;34640;53.590;10.054;2022-08-07T13:13:12;102029.69;;;22.58;44.70
48824;BME280;34640;53.590;10.054;2022-08-07T13:16:14;102024.66;;;22.67;44.38
48824;BME280;34640;53.590;10.054;2022-08-07T13:19:02;102025.66;;;22.71;44.09
48824;BME280;34640;53.590;10.054;2022-08-07T13:21:48;102018.22;;;22.59;43.53
48824;BME280;34640;53.590;10.054;2022-08-07T13:24:39;102016.03;;;22.46;44.59
48824;BME280;34640;53.590;10.054;2022-08-07T13:27:26;102014.00;;;22.37;45.40
48824;BME280;34640;53.590;10.054;2022-08-07T13:30:21;102012.69;;;22.24;45.88
48824;BME280;34640;53.590;10.054;2022-08-07T13:33:20;102004.59;;;22.20;45.71
48824;BME280;34640;53.590;10.054;2022-08-07T13:36:20;102009.41;;;22.33;44.54
48824;BME280;34640;53.590;10.054;2022-08-07T13:39:02;102015.13;;;22.45;44.58
48824;BME280;34640;53.590;10.054;2022-08-07T13:41:49;102012.28;;;22.68;44.26
48824;BME280;34640;53.590;10.054;2022-08-07T13:44:27;102008.19;;;22.79;43.86
48824;BME280;34640;53.590;10.054;2022-08-07T13:47:09;102002.31;;;22.89;43.57
48824;BME280;34640;53.590;10.054;2022-08-07T13:49:47;101998.69;;;22.85;42.40
48824;BME280;34640;53.590;10.054;2022-08-07T13:52:42;101996.84;;;22.83;43.63
48824;BME280;34640;53.590;10.054;2022-08-07T13:55:20;101995.03;;;22.82;43.49
48824;BME280;34640;53.590;10.054;2022-08-07T13:58:03;101995.25;;;22.90;41.97
48824;BME280;34640;53.590;10.054;2022-08-07T14:01:10;101990.34;;;23.03;40.86
48824;BME280;34640;53.590;10.054;2022-08-07T14:03:44;101994.69;;;23.00;41.97
48824;BME280;34640;53.590;10.054;2022-08-07T14:06:40;101992.75;;;22.96;42.36
48824;BME280;34640;53.590;10.054;2022-08-07T14:09:17;101989.25;;;22.97;42.45
48824;BME280;34640;53.590;10.054;2022-08-07T14:12:23;101980.28;;;22.93;41.66
48824;BME280;34640;53.590;10.054;2022-08-07T14:15:02;101971.16;;;23.15;42.56
48824;BME280;34640;53.590;10.054;2022-08-07T14:17:39;101983.13;;;23.31;41.76
48824;BME280;34640;53.590;10.054;2022-08-07T14:20:36;101977.63;;;23.23;41.65
48824;BME280;34640;53.590;10.054;2022-08-07T14:23:23;101977.38;;;23.15;41.93